sensor_id;sensor_type;location;lat;lon;timestamp;pressure;altitude;pressure_sealevel;temperature;humidity
72285;BME280;60220;53.552;10.092;2023-09-30T00:01:34;101929.56;;;15.68;100.00
72285;BME280;60220;53.552;10.092;2023-09-30T00:04:03;101934.31;;;15.42;100.00
72285;BME280;60220;53.552;10.092;2023-09-30T00:06:32;101943.72;;;14.98;100.00
72285;BME280;60220;53.552;10.092;2023-09-30T00:08:59;101943.16;;;15.41;100.00
72285;BME280;60220;53.552;10.092;2023-09-30T00:11:29;101947.63;;;15.37;100.00
72285;BME280;60220;53.552;10.092;2023-09-30T00:13:56;101950.81;;;15.64;100.00
72285;BME280;60220;53.552;10.092;2023-09-30T00:16:24;101948.25;;;15.58;100.00
72285;BME280;60220;53.552;10.092;2023-09-30T00:18:53;101939.44;;;15.57;100.00
72285;BME280;60220;53.552;10.092;2023-09-30T00:21:23;101948.91;;;15.07;100.00
72285;BME280;60220;53.552;10.092;2023-09-30T00:23:49;101950.16;;;15.45;100.00
72285;BME280;60220;53.552;10.092;2023-09-30T00:26:16;101969.28;;;14.98;100.00
72285;BME280;60220;53.552;10.092;2023-09-30T00:28:47;101956.59;;;15.26;100.00
72285;BME280;60220;53.552;10.092;2023-09-30T00:31:16;101959.34;;;15.18;100.00
72285;BME280;60220;53.552;10.092;2023-09-30T00:33:42;101961.41;;;14.90;100.00
72285;BME280;60220;53.552;10.092;2023-09-30T00:36:10;101963.00;;;15.06;100.00
72285;BME280;60220;53.552;10.092;2023-09-30T00:38:37;101965.47;;;14.41;100.00
72285;BME280;60220;53.552;10.092;2023-09-30T00:41:04;101966.81;;;14.84;100.00
72285;BME280;60220;53.552;10.092;2023-09-30T00:43:30;101967.22;;;15.23;100.00
72285;BME280;60220;53.552;10.092;2023-09-30T00:46:02;101967.84;;;15.41;100.00
72285;BME280;60220;53.552;10.092;2023-09-30T00:48:32;101973.97;;;14.70;100.00
72285;BME280;60220;53.552;10.092;2023-09-30T00:50:59;101969.94;;;15.15;100.00
72285;BME280;60220;53.552;10.092;2023-09-30T00:53:27;101973.09;;;14.71;100.00
72285;BME280;60220;53.552;10.092;2023-09-30T00:55:57;101968.50;;;14.88;100.00
72285;BME280;60220;53.552;10.092;2023-09-30T00:58:26;101970.22;;;14.94;100.00
72285;BME280;60220;53.552;10.092;2023-09-30T01:00:56;101973.88;;;14.82;100.00
72285;BME280;60220;53.552;10.092;2023-09-30T01:03:24;101970.00;;;15.11;100.00
72285;BME280;60220;53.552;10.092;2023-09-30T01:05:53;101970.94;;;15.05;100.00
72285;BME280;60220;53.552;10.092;2023-09-30T01:08:20;101974.81;;;14.77;100.00
72285;BME280;60220;53.552;10.092;2023-09-30T01:10:48;101971.44;;;15.36;100.00
72285;BME280;60220;53.552;10.092;2023-09-30T01:13:16;101969.94;;;15.17;100.00
72285;BME280;60220;53.552;10.092;2023-09-30T01:15:43;101971.63;;;15.21;100.00
72285;BME280;60220;53.552;10.092;2023-09-30T01:18:09;101964.31;;;14.69;100.00
72285;BME280;60220;53.552;10.092;2023-09-30T01:20:38;101966.72;;;14.90;100.00
72285;BME280;60220;53.552;10.092;2023-09-30T01:23:09;101972.38;;;14.57;100.00
72285;BME280;60220;53.552;10.092;2023-09-30T01:25:38;101968.56;;;14.82;100.00
72285;BME280;60220;53.552;10.092;2023-09-30T01:28:08;101972.34;;;15.35;100.00
72285;BME280;60220;53.552;10.092;2023-09-30T01:30:36;101973.25;;;15.34;100.00
72285;BME280;60220;53.552;10.092;2023-09-30T01:33:03;101977.72;;;15.29;100.00
72285;BME280;60220;53.552;10.092;2023-09-30T01:35:33;101976.91;;;15.22;100.00
72285;BME280;60220;53.552;10.092;2023-09-30T01:37:59;101976.09;;;15.17;100.00
72285;BME280;60220;53.552;10.092;2023-09-30T01:40:27;101980.38;;;15.29;100.00
72285;BME280;60220;53.552;10.092;2023-09-30T01:42:56;101973.50;;;15.13;100.00
72285;BME280;60220;53.552;10.092;2023-09-30T01:45:22;101970.81;;;15.17;100.00
72285;BME280;60220;53.552;10.092;2023-09-30T01:47:49;101977.97;;;15.07;100.00
72285;BME280;60220;53.552;10.092;2023-09-30T01:50:18;101975.28;;;14.20;100.00
72285;BME280;60220;53.552;10.092;2023-09-30T01:52:47;101987.38;;;14.53;100.00
72285;BME280;60220;53.552;10.092;2023-09-30T01:55:14;101987.47;;;14.40;100.00
72285;BME280;60220;53.552;10.092;2023-09-30T01:57:42;101998.13;;;14.29;100.00
72285;BME280;60220;53.552;10.092;2023-09-30T02:00:09;101994.50;;;15.25;100.00
72285;BME280;60220;53.552;10.092;2023-09-30T02:02:38;101992.41;;;15.54;100.00
72285;BME280;60220;53.552;10.092;2023-09-30T02:05:06;101994.91;;;14.91;100.00
72285;BME280;60220;53.552;10.092;2023-09-30T02:07:33;102000.41;;;14.73;100.00
72285;BME280;60220;53.552;10.092;2023-09-30T02:10:00;101996.63;;;14.95;100.00
72285;BME280;60220;53.552;10.092;2023-09-30T02:12:27;101996.50;;;15.06;100.00
72285;BME280;60220;53.552;10.092;2023-09-30T02:14:57;101996.44;;;15.14;100.00
72285;BME280;60220;53.552;10.092;2023-09-30T02:17:24;101998.16;;;15.16;100.00
72285;BME280;60220;53.552;10.092;2023-09-30T02:19:51;102005.75;;;14.65;100.00
72285;BME280;60220;53.552;10.092;2023-09-30T02:22:20;102003.00;;;14.76;100.00
72285;BME280;60220;53.552;10.092;2023-09-30T02:24:46;102001.28;;;14.72;100.00
72285;BME280;60220;53.552;10.092;2023-09-30T02:27:14;101998.84;;;14.51;100.00
72285;BME280;60220;53.552;10.092;2023-09-30T02:29:40;101996.66;;;14.92;100.00
72285;BME280;60220;53.552;10.092;2023-09-30T02:32:09;101997.03;;;14.59;100.00
72285;BME280;60220;53.552;10.092;2023-09-30T02:34:38;101999.81;;;14.41;100.00
72285;BME280;60220;53.552;10.092;2023-09-30T02:37:04;101997.84;;;14.62;100.00
72285;BME280;60220;53.552;10.092;2023-09-30T02:39:32;101998.22;;;14.18;100.00
72285;BME280;60220;53.552;10.092;2023-09-30T02:41:58;102005.09;;;14.35;100.00
72285;BME280;60220;53.552;10.092;2023-09-30T02:44:25;102003.38;;;14.38;100.00
72285;BME280;60220;53.552;10.092;2023-09-30T02:46:52;101996.56;;;14.01;100.00
72285;BME280;60220;53.552;10.092;2023-09-30T02:49:21;102008.44;;;14.61;100.00
72285;BME280;60220;53.552;10.092;2023-09-30T02:51:50;102009.53;;;14.30;100.00
72285;BME280;60220;53.552;10.092;2023-09-30T02:54:17;102010.41;;;14.38;100.00
72285;BME280;60220;53.552;10.092;2023-09-30T02:56:43;102007.06;;;14.11;100.00
72285;BME280;60220;53.552;10.092;2023-09-30T02:59:14;102006.09;;;14.20;100.00
72285;BME280;60220;53.552;10.092;2023-09-30T03:01:42;102014.28;;;13.88;100.00
72285;BME280;60220;53.552;10.092;2023-09-30T03:04:08;102020.31;;;14.08;100.00
72285;BME280;60220;53.552;10.092;2023-09-30T03:06:39;102008.75;;;14.20;100.00
72285;BME280;60220;53.552;10.092;2023-09-30T03:09:07;102009.66;;;14.16;100.00
72285;BME280;60220;53.552;10.092;2023-09-30T03:11:35;102007.78;;;14.32;100.00
72285;BME280;60220;53.552;10.092;2023-09-30T03:14:04;102016.41;;;14.55;100.00
72285;BME280;60220;53.552;10.092;2023-09-30T03:16:33;102012.34;;;14.14;100.00
72285;BME280;60220;53.552;10.092;2023-09-30T03:19:00;102012.19;;;14.33;100.00
72285;BME280;60220;53.552;10.092;2023-09-30T03:21:32;102024.56;;;14.28;100.00
72285;BME280;60220;53.552;10.092;2023-09-30T03:24:00;102028.69;;;14.62;100.00
72285;BME280;60220;53.552;10.092;2023-09-30T03:26:28;102017.56;;;14.20;100.00
72285;BME280;60220;53.552;10.092;2023-09-30T03:28:58;102022.47;;;14.64;100.00
72285;BME280;60220;53.552;10.092;2023-09-30T03:31:24;102017.28;;;14.55;100.00
72285;BME280;60220;53.552;10.092;2023-09-30T03:33:51;102022.16;;;13.94;100.00
72285;BME280;60220;53.552;10.092;2023-09-30T03:36:19;102023.72;;;14.22;100.00
72285;BME280;60220;53.552;10.092;2023-09-30T03:38:46;102019.34;;;14.17;100.00
72285;BME280;60220;53.552;10.092;2023-09-30T03:41:14;102017.72;;;13.95;100.00
72285;BME280;60220;53.552;10.092;2023-09-30T03:43:41;102017.28;;;14.58;100.00
72285;BME280;60220;53.552;10.092;2023-09-30T03:46:10;102016.34;;;14.64;100.00
72285;BME280;60220;53.552;10.092;2023-09-30T03:48:38;102011.38;;;14.23;100.00
72285;BME280;60220;53.552;10.092;2023-09-30T03:51:08;102007.94;;;14.10;100.00
72285;BME280;60220;53.552;10.092;2023-09-30T03:53:40;102013.22;;;14.10;100.00
72285;BME280;60220;53.552;10.092;2023-09-30T03:56:07;102019.53;;;13.91;100.00
72285;BME280;60220;53.552;10.092;2023-09-30T03:58:38;102019.78;;;14.72;100.00
72285;BME280;60220;53.552;10.092;2023-09-30T04:01:07;102015.03;;;14.05;100.00
72285;BME280;60220;53.552;10.092;2023-09-30T04:03:36;102015.56;;;14.53;100.00
72285;BME280;60220;53.552;10.092;2023-09-30T04:06:05;102012.47;;;13.93;100.00
72285;BME280;60220;53.552;10.092;2023-09-30T04:08:33;102035.03;;;14.41;100.00
72285;BME280;60220;53.552;10.092;2023-09-30T04:11:01;102030.34;;;13.43;100.00
72285;BME280;60220;53.552;10.092;2023-09-30T04:13:28;102031.91;;;13.85;100.00
72285;BME280;60220;53.552;10.092;2023-09-30T04:15:57;102030.41;;;14.69;100.00
72285;BME280;60220;53.552;10.092;2023-09-30T04:18:24;102034.41;;;14.04;100.00
72285;BME280;60220;53.552;10.092;2023-09-30T04:20:51;102027.22;;;14.25;100.00
72285;BME280;60220;53.552;10.092;2023-09-30T04:23:18;102028.03;;;14.39;100.00
72285;BME280;60220;53.552;10.092;2023-09-30T04:25:45;102033.31;;;14.33;100.00
72285;BME280;60220;53.552;10.092;2023-09-30T04:28:13;102035.94;;;14.39;100.00
72285;BME280;60220;53.552;10.092;2023-09-30T04:30:41;102042.09;;;14.35;100.00
72285;BME280;60220;53.552;10.092;2023-09-30T04:33:09;102033.44;;;14.19;100.00
72285;BME280;60220;53.552;10.092;2023-09-30T04:35:37;102042.97;;;14.40;100.00
72285;BME280;60220;53.552;10.092;2023-09-30T04:38:06;102041.53;;;13.93;100.00
72285;BME280;60220;53.552;10.092;2023-09-30T04:40:33;102046.75;;;13.95;100.00
72285;BME280;60220;53.552;10.092;2023-09-30T04:43:00;102050.25;;;14.01;100.00
72285;BME280;60220;53.552;10.092;2023-09-30T04:45:27;102037.06;;;14.01;100.00
72285;BME280;60220;53.552;10.092;2023-09-30T04:47:56;102049.16;;;14.33;100.00
72285;BME280;60220;53.552;10.092;2023-09-30T04:50:24;102058.13;;;14.13;100.00
72285;BME280;60220;53.552;10.092;2023-09-30T04:52:51;102060.75;;;14.10;100.00
72285;BME280;60220;53.552;10.092;2023-09-30T04:55:20;102059.66;;;14.46;100.00
72285;BME280;60220;53.552;10.092;2023-09-30T04:57:50;102056.88;;;14.60;100.00
72285;BME280;60220;53.552;10.092;2023-09-30T05:00:18;102063.25;;;14.30;100.00
72285;BME280;60220;53.552;10.092;2023-09-30T05:02:50;102058.81;;;14.40;100.00
72285;BME280;60220;53.552;10.092;2023-09-30T05:05:17;102047.84;;;14.85;100.00
72285;BME280;60220;53.552;10.092;2023-09-30T05:07:46;102049.78;;;14.65;100.00
72285;BME280;60220;53.552;10.092;2023-09-30T05:10:13;102050.25;;;15.08;100.00
72285;BME280;60220;53.552;10.092;2023-09-30T05:12:41;102063.34;;;14.18;100.00
72285;BME280;60220;53.552;10.092;2023-09-30T05:15:13;102069.06;;;14.79;100.00
72285;BME280;60220;53.552;10.092;2023-09-30T05:17:41;102074.13;;;15.03;100.00
72285;BME280;60220;53.552;10.092;2023-09-30T05:20:09;102071.53;;;14.94;100.00
72285;BME280;60220;53.552;10.092;2023-09-30T05:22:37;102073.56;;;14.68;100.00
72285;BME280;60220;53.552;10.092;2023-09-30T05:25:08;102061.09;;;14.81;100.00
72285;BME280;60220;53.552;10.092;2023-09-30T05:27:36;102071.22;;;14.26;100.00
72285;BME280;60220;53.552;10.092;2023-09-30T05:30:03;102073.84;;;14.26;100.00
72285;BME280;60220;53.552;10.092;2023-09-30T05:32:33;102068.56;;;14.27;100.00
72285;BME280;60220;53.552;10.092;2023-09-30T05:35:04;102060.56;;;14.41;100.00
72285;BME280;60220;53.552;10.092;2023-09-30T05:37:31;102069.28;;;14.53;100.00
72285;BME280;60220;53.552;10.092;2023-09-30T05:39:58;102081.50;;;14.65;100.00
72285;BME280;60220;53.552;10.092;2023-09-30T05:42:26;102078.19;;;14.36;100.00
72285;BME280;60220;53.552;10.092;2023-09-30T05:44:55;102079.81;;;14.55;100.00
72285;BME280;60220;53.552;10.092;2023-09-30T05:47:21;102087.06;;;14.26;100.00
72285;BME280;60220;53.552;10.092;2023-09-30T05:49:50;102094.06;;;14.39;100.00
72285;BME280;60220;53.552;10.092;2023-09-30T05:52:17;102094.06;;;14.33;100.00
72285;BME280;60220;53.552;10.092;2023-09-30T05:54:44;102095.00;;;14.29;100.00
72285;BME280;60220;53.552;10.092;2023-09-30T05:57:11;102099.31;;;14.36;100.00
72285;BME280;60220;53.552;10.092;2023-09-30T05:59:40;102095.78;;;14.40;100.00
72285;BME280;60220;53.552;10.092;2023-09-30T06:02:07;102094.28;;;13.96;100.00
72285;BME280;60220;53.552;10.092;2023-09-30T06:04:34;102100.34;;;14.15;100.00
72285;BME280;60220;53.552;10.092;2023-09-30T06:07:00;102106.28;;;14.52;100.00
72285;BME280;60220;53.552;10.092;2023-09-30T06:09:29;102107.28;;;14.30;100.00
72285;BME280;60220;53.552;10.092;2023-09-30T06:11:58;102114.13;;;14.62;100.00
72285;BME280;60220;53.552;10.092;2023-09-30T06:14:28;102122.22;;;14.43;100.00
72285;BME280;60220;53.552;10.092;2023-09-30T06:16:57;102136.22;;;14.52;100.00
72285;BME280;60220;53.552;10.092;2023-09-30T06:19:24;102125.75;;;14.31;100.00
72285;BME280;60220;53.552;10.092;2023-09-30T06:21:51;102131.13;;;14.23;100.00
72285;BME280;60220;53.552;10.092;2023-09-30T06:24:18;102132.00;;;14.21;100.00
72285;BME280;60220;53.552;10.092;2023-09-30T06:26:45;102134.78;;;13.94;100.00
72285;BME280;60220;53.552;10.092;2023-09-30T06:29:14;102138.28;;;13.97;100.00
72285;BME280;60220;53.552;10.092;2023-09-30T06:31:43;102139.25;;;13.84;100.00
72285;BME280;60220;53.552;10.092;2023-09-30T06:34:13;102142.78;;;13.77;100.00
72285;BME280;60220;53.552;10.092;2023-09-30T06:36:40;102138.22;;;14.14;100.00
72285;BME280;60220;53.552;10.092;2023-09-30T06:39:07;102151.34;;;14.28;100.00
72285;BME280;60220;53.552;10.092;2023-09-30T06:41:34;102147.81;;;14.26;100.00
72285;BME280;60220;53.552;10.092;2023-09-30T06:44:00;102157.34;;;14.57;100.00
72285;BME280;60220;53.552;10.092;2023-09-30T06:46:27;102152.19;;;14.39;100.00
72285;BME280;60220;53.552;10.092;2023-09-30T06:48:54;102160.41;;;13.67;100.00
72285;BME280;60220;53.552;10.092;2023-09-30T06:51:22;102154.09;;;14.09;100.00
72285;BME280;60220;53.552;10.092;2023-09-30T06:53:49;102173.94;;;14.76;100.00
72285;BME280;60220;53.552;10.092;2023-09-30T06:56:16;102163.66;;;14.27;100.00
72285;BME280;60220;53.552;10.092;2023-09-30T06:58:42;102163.53;;;14.50;100.00
72285;BME280;60220;53.552;10.092;2023-09-30T07:01:15;102166.34;;;14.19;100.00
72285;BME280;60220;53.552;10.092;2023-09-30T07:03:42;102176.47;;;14.92;100.00
72285;BME280;60220;53.552;10.092;2023-09-30T07:06:09;102165.91;;;14.89;100.00
72285;BME280;60220;53.552;10.092;2023-09-30T07:08:37;102165.09;;;14.83;100.00
72285;BME280;60220;53.552;10.092;2023-09-30T07:11:04;102169.78;;;14.31;100.00
72285;BME280;60220;53.552;10.092;2023-09-30T07:13:33;102170.91;;;15.23;100.00
72285;BME280;60220;53.552;10.092;2023-09-30T07:16:02;102163.81;;;15.25;100.00
72285;BME280;60220;53.552;10.092;2023-09-30T07:18:31;102175.28;;;16.05;100.00
72285;BME280;60220;53.552;10.092;2023-09-30T07:20:57;102180.00;;;15.83;100.00
72285;BME280;60220;53.552;10.092;2023-09-30T07:23:29;102183.72;;;14.63;100.00
72285;BME280;60220;53.552;10.092;2023-09-30T07:25:58;102191.28;;;15.10;100.00
72285;BME280;60220;53.552;10.092;2023-09-30T07:28:25;102182.16;;;15.43;100.00
72285;BME280;60220;53.552;10.092;2023-09-30T07:30:52;102172.72;;;15.19;100.00
72285;BME280;60220;53.552;10.092;2023-09-30T07:33:19;102188.34;;;15.42;100.00
72285;BME280;60220;53.552;10.092;2023-09-30T07:35:49;102194.47;;;15.45;100.00
72285;BME280;60220;53.552;10.092;2023-09-30T07:38:15;102201.75;;;16.08;100.00
72285;BME280;60220;53.552;10.092;2023-09-30T07:40:42;102196.16;;;15.56;100.00
72285;BME280;60220;53.552;10.092;2023-09-30T07:43:10;102192.72;;;15.47;100.00
72285;BME280;60220;53.552;10.092;2023-09-30T07:45:38;102196.34;;;15.36;100.00
72285;BME280;60220;53.552;10.092;2023-09-30T07:48:06;102188.63;;;15.12;100.00
72285;BME280;60220;53.552;10.092;2023-09-30T07:50:35;102184.75;;;15.49;100.00
72285;BME280;60220;53.552;10.092;2023-09-30T07:53:02;102191.88;;;15.41;100.00
72285;BME280;60220;53.552;10.092;2023-09-30T07:55:29;102194.63;;;15.30;100.00
72285;BME280;60220;53.552;10.092;2023-09-30T07:57:56;102202.59;;;16.10;100.00
72285;BME280;60220;53.552;10.092;2023-09-30T08:00:26;102208.56;;;16.27;100.00
72285;BME280;60220;53.552;10.092;2023-09-30T08:02:53;102201.56;;;15.42;100.00
72285;BME280;60220;53.552;10.092;2023-09-30T08:05:20;102206.75;;;15.59;100.00
72285;BME280;60220;53.552;10.092;2023-09-30T08:07:49;102209.78;;;16.03;100.00
72285;BME280;60220;53.552;10.092;2023-09-30T08:10:15;102204.34;;;16.12;100.00
72285;BME280;60220;53.552;10.092;2023-09-30T08:12:42;102203.72;;;15.93;100.00
72285;BME280;60220;53.552;10.092;2023-09-30T08:15:11;102206.69;;;16.35;100.00
72285;BME280;60220;53.552;10.092;2023-09-30T08:17:42;102205.34;;;16.04;100.00
72285;BME280;60220;53.552;10.092;2023-09-30T08:20:09;102207.69;;;16.26;100.00
72285;BME280;60220;53.552;10.092;2023-09-30T08:22:36;102215.66;;;16.25;100.00
72285;BME280;60220;53.552;10.092;2023-09-30T08:25:05;102230.03;;;16.06;100.00
72285;BME280;60220;53.552;10.092;2023-09-30T08:27:32;102233.56;;;16.05;100.00
72285;BME280;60220;53.552;10.092;2023-09-30T08:30:02;102236.31;;;15.97;100.00
72285;BME280;60220;53.552;10.092;2023-09-30T08:32:32;102231.88;;;17.25;100.00
72285;BME280;60220;53.552;10.092;2023-09-30T08:35:03;102233.31;;;16.89;100.00
72285;BME280;60220;53.552;10.092;2023-09-30T08:37:30;102228.94;;;17.41;100.00
72285;BME280;60220;53.552;10.092;2023-09-30T08:40:00;102216.72;;;17.82;100.00
72285;BME280;60220;53.552;10.092;2023-09-30T08:42:27;102219.09;;;17.46;100.00
72285;BME280;60220;53.552;10.092;2023-09-30T08:44:57;102220.56;;;17.13;100.00
72285;BME280;60220;53.552;10.092;2023-09-30T08:47:26;102229.19;;;17.28;100.00
72285;BME280;60220;53.552;10.092;2023-09-30T08:49:53;102225.13;;;17.56;100.00
72285;BME280;60220;53.552;10.092;2023-09-30T08:52:24;102223.63;;;17.89;100.00
72285;BME280;60220;53.552;10.092;2023-09-30T08:54:53;102235.16;;;16.87;100.00
72285;BME280;60220;53.552;10.092;2023-09-30T08:57:22;102233.13;;;17.02;100.00
72285;BME280;60220;53.552;10.092;2023-09-30T08:59:49;102236.50;;;16.52;100.00
72285;BME280;60220;53.552;10.092;2023-09-30T09:02:16;102235.63;;;17.13;100.00
72285;BME280;60220;53.552;10.092;2023-09-30T09:04:44;102238.47;;;17.53;100.00
72285;BME280;60220;53.552;10.092;2023-09-30T09:07:11;102241.13;;;17.51;100.00
72285;BME280;60220;53.552;10.092;2023-09-30T09:09:39;102245.69;;;16.24;100.00
72285;BME280;60220;53.552;10.092;2023-09-30T09:12:06;102252.47;;;16.46;100.00
72285;BME280;60220;53.552;10.092;2023-09-30T09:14:36;102235.72;;;17.07;100.00
72285;BME280;60220;53.552;10.092;2023-09-30T09:17:06;102246.00;;;17.25;100.00
72285;BME280;60220;53.552;10.092;2023-09-30T09:19:33;102255.34;;;16.95;100.00
72285;BME280;60220;53.552;10.092;2023-09-30T09:22:01;102246.31;;;17.60;100.00
72285;BME280;60220;53.552;10.092;2023-09-30T09:24:31;102246.81;;;17.30;100.00
72285;BME280;60220;53.552;10.092;2023-09-30T09:27:09;102258.53;;;16.56;100.00
72285;BME280;60220;53.552;10.092;2023-09-30T09:29:37;102255.25;;;17.03;100.00
72285;BME280;60220;53.552;10.092;2023-09-30T09:32:08;102260.81;;;16.85;100.00
72285;BME280;60220;53.552;10.092;2023-09-30T09:34:35;102256.97;;;17.04;100.00
72285;BME280;60220;53.552;10.092;2023-09-30T09:37:12;102256.44;;;17.37;100.00
72285;BME280;60220;53.552;10.092;2023-09-30T09:39:52;102260.31;;;17.16;100.00
72285;BME280;60220;53.552;10.092;2023-09-30T09:42:28;102264.44;;;17.34;100.00
72285;BME280;60220;53.552;10.092;2023-09-30T09:44:56;102251.06;;;17.91;100.00
72285;BME280;60220;53.552;10.092;2023-09-30T09:47:24;102254.06;;;17.73;100.00
72285;BME280;60220;53.552;10.092;2023-09-30T09:49:51;102259.03;;;17.40;100.00
72285;BME280;60220;53.552;10.092;2023-09-30T09:52:20;102253.09;;;17.25;100.00
72285;BME280;60220;53.552;10.092;2023-09-30T09:54:47;102251.22;;;17.31;100.00
72285;BME280;60220;53.552;10.092;2023-09-30T09:57:16;102249.56;;;17.76;100.00
72285;BME280;60220;53.552;10.092;2023-09-30T09:59:47;102247.78;;;18.21;100.00
72285;BME280;60220;53.552;10.092;2023-09-30T10:02:15;102247.19;;;17.61;100.00
72285;BME280;60220;53.552;10.092;2023-09-30T10:04:43;102247.25;;;17.56;100.00
72285;BME280;60220;53.552;10.092;2023-09-30T10:07:13;102248.09;;;17.08;100.00
72285;BME280;60220;53.552;10.092;2023-09-30T10:09:45;102244.84;;;17.43;100.00
72285;BME280;60220;53.552;10.092;2023-09-30T10:12:14;102249.59;;;18.19;100.00
72285;BME280;60220;53.552;10.092;2023-09-30T10:14:44;102241.97;;;18.02;100.00
72285;BME280;60220;53.552;10.092;2023-09-30T10:17:12;102238.75;;;18.28;100.00
72285;BME280;60220;53.552;10.092;2023-09-30T10:20:04;102250.50;;;18.18;100.00
72285;BME280;60220;53.552;10.092;2023-09-30T10:22:34;102255.94;;;17.68;100.00
72285;BME280;60220;53.552;10.092;2023-09-30T10:25:33;102255.06;;;17.67;100.00
72285;BME280;60220;53.552;10.092;2023-09-30T10:27:59;102248.47;;;17.88;100.00
72285;BME280;60220;53.552;10.092;2023-09-30T10:30:26;102253.69;;;18.35;100.00
72285;BME280;60220;53.552;10.092;2023-09-30T10:33:10;102255.34;;;17.98;100.00
72285;BME280;60220;53.552;10.092;2023-09-30T10:35:47;102267.78;;;17.96;100.00
72285;BME280;60220;53.552;10.092;2023-09-30T10:38:36;102259.50;;;18.11;100.00
72285;BME280;60220;53.552;10.092;2023-09-30T10:41:03;102262.97;;;18.15;100.00
72285;BME280;60220;53.552;10.092;2023-09-30T10:43:30;102272.88;;;18.08;100.00
72285;BME280;60220;53.552;10.092;2023-09-30T10:45:57;102274.00;;;17.95;100.00
72285;BME280;60220;53.552;10.092;2023-09-30T10:48:35;102273.66;;;17.66;100.00
72285;BME280;60220;53.552;10.092;2023-09-30T10:51:11;102269.16;;;18.15;100.00
72285;BME280;60220;53.552;10.092;2023-09-30T10:53:42;102279.16;;;18.45;100.00
72285;BME280;60220;53.552;10.092;2023-09-30T10:56:09;102264.66;;;18.19;100.00
72285;BME280;60220;53.552;10.092;2023-09-30T10:58:40;102263.22;;;18.45;100.00
72285;BME280;60220;53.552;10.092;2023-09-30T11:01:07;102263.59;;;18.70;100.00
72285;BME280;60220;53.552;10.092;2023-09-30T11:03:38;102270.03;;;18.59;100.00
72285;BME280;60220;53.552;10.092;2023-09-30T11:06:04;102266.72;;;18.47;100.00
72285;BME280;60220;53.552;10.092;2023-09-30T11:08:32;102264.84;;;18.53;100.00
72285;BME280;60220;53.552;10.092;2023-09-30T11:10:59;102261.25;;;18.57;100.00
72285;BME280;60220;53.552;10.092;2023-09-30T11:13:33;102265.25;;;18.74;100.00
72285;BME280;60220;53.552;10.092;2023-09-30T11:16:02;102264.81;;;18.54;100.00
72285;BME280;60220;53.552;10.092;2023-09-30T11:18:30;102261.59;;;18.38;100.00
72285;BME280;60220;53.552;10.092;2023-09-30T11:21:05;102260.91;;;19.09;100.00
72285;BME280;60220;53.552;10.092;2023-09-30T11:23:33;102249.38;;;19.08;100.00
72285;BME280;60220;53.552;10.092;2023-09-30T11:26:02;102259.28;;;18.65;100.00
72285;BME280;60220;53.552;10.092;2023-09-30T11:28:38;102249.38;;;18.28;100.00
72285;BME280;60220;53.552;10.092;2023-09-30T11:31:08;102245.28;;;18.57;100.00
72285;BME280;60220;53.552;10.092;2023-09-30T11:33:49;102251.31;;;18.63;100.00
72285;BME280;60220;53.552;10.092;2023-09-30T11:36:18;102244.25;;;19.01;100.00
72285;BME280;60220;53.552;10.092;2023-09-30T11:38:46;102235.97;;;18.76;100.00
72285;BME280;60220;53.552;10.092;2023-09-30T11:41:15;102236.44;;;18.93;100.00
72285;BME280;60220;53.552;10.092;2023-09-30T11:43:58;102250.44;;;19.01;100.00
72285;BME280;60220;53.552;10.092;2023-09-30T11:46:26;102244.78;;;19.15;100.00
72285;BME280;60220;53.552;10.092;2023-09-30T11:48:59;102249.38;;;19.08;100.00
72285;BME280;60220;53.552;10.092;2023-09-30T11:51:28;102251.25;;;18.68;100.00
72285;BME280;60220;53.552;10.092;2023-09-30T11:53:55;102249.63;;;18.61;100.00
72285;BME280;60220;53.552;10.092;2023-09-30T11:56:25;102256.84;;;18.54;100.00
72285;BME280;60220;53.552;10.092;2023-09-30T11:58:56;102247.56;;;19.10;100.00
72285;BME280;60220;53.552;10.092;2023-09-30T12:01:24;102246.81;;;19.04;100.00
72285;BME280;60220;53.552;10.092;2023-09-30T12:03:52;102242.31;;;19.07;100.00
72285;BME280;60220;53.552;10.092;2023-09-30T12:06:20;102246.53;;;18.79;100.00
72285;BME280;60220;53.552;10.092;2023-09-30T12:08:48;102255.25;;;18.45;100.00
72285;BME280;60220;53.552;10.092;2023-09-30T12:11:17;102241.91;;;18.47;100.00
72285;BME280;60220;53.552;10.092;2023-09-30T12:13:44;102231.31;;;18.45;100.00
72285;BME280;60220;53.552;10.092;2023-09-30T12:16:13;102241.56;;;18.64;100.00
72285;BME280;60220;53.552;10.092;2023-09-30T12:18:40;102234.44;;;18.66;100.00
72285;BME280;60220;53.552;10.092;2023-09-30T12:21:07;102226.56;;;18.98;100.00
72285;BME280;60220;53.552;10.092;2023-09-30T12:23:34;102227.88;;;19.17;100.00
72285;BME280;60220;53.552;10.092;2023-09-30T12:26:04;102233.88;;;19.25;100.00
72285;BME280;60220;53.552;10.092;2023-09-30T12:28:31;102228.81;;;19.15;100.00
72285;BME280;60220;53.552;10.092;2023-09-30T12:30:58;102220.47;;;19.28;100.00
72285;BME280;60220;53.552;10.092;2023-09-30T12:33:27;102223.72;;;19.41;100.00
72285;BME280;60220;53.552;10.092;2023-09-30T12:35:54;102224.38;;;19.15;100.00
72285;BME280;60220;53.552;10.092;2023-09-30T12:38:20;102220.56;;;19.25;100.00